sensor_id;sensor_type;location;lat;lon;timestamp;temperature;humidity
37530;DHT22;23374;52.758;6.872;2023-07-13T00:01:06;17.80;1.00
37530;DHT22;23374;52.758;6.872;2023-07-13T00:03:26;17.80;1.00
37530;DHT22;23374;52.758;6.872;2023-07-13T00:05:47;17.80;1.00
37530;DHT22;23374;52.758;6.872;2023-07-13T00:08:16;17.80;1.00
37530;DHT22;23374;52.758;6.872;2023-07-13T00:10:42;17.80;1.00
37530;DHT22;23374;52.758;6.872;2023-07-13T00:13:03;17.80;1.00
37530;DHT22;23374;52.758;6.872;2023-07-13T00:15:26;17.70;1.00
37530;DHT22;23374;52.758;6.872;2023-07-13T00:17:46;17.60;1.00
37530;DHT22;23374;52.758;6.872;2023-07-13T00:20:09;17.60;1.00
37530;DHT22;23374;52.758;6.872;2023-07-13T00:22:29;17.60;1.00
37530;DHT22;23374;52.758;6.872;2023-07-13T00:24:49;17.60;1.00
37530;DHT22;23374;52.758;6.872;2023-07-13T00:27:11;17.50;1.00
37530;DHT22;23374;52.758;6.872;2023-07-13T00:29:32;17.50;1.00
37530;DHT22;23374;52.758;6.872;2023-07-13T00:31:54;17.40;1.00
37530;DHT22;23374;52.758;6.872;2023-07-13T00:34:14;17.40;1.00
37530;DHT22;23374;52.758;6.872;2023-07-13T00:36:35;17.40;1.00
37530;DHT22;23374;52.758;6.872;2023-07-13T00:38:56;17.30;1.00
37530;DHT22;23374;52.758;6.872;2023-07-13T00:41:17;17.30;1.00
37530;DHT22;23374;52.758;6.872;2023-07-13T00:43:37;17.30;1.00
37530;DHT22;23374;52.758;6.872;2023-07-13T00:46:28;17.30;1.00
37530;DHT22;23374;52.758;6.872;2023-07-13T00:48:50;17.30;1.00
37530;DHT22;23374;52.758;6.872;2023-07-13T00:51:11;17.30;1.00
37530;DHT22;23374;52.758;6.872;2023-07-13T00:54:11;17.20;1.00
37530;DHT22;23374;52.758;6.872;2023-07-13T00:56:33;17.20;1.00
37530;DHT22;23374;52.758;6.872;2023-07-13T00:58:55;17.20;1.00
37530;DHT22;23374;52.758;6.872;2023-07-13T01:01:16;17.20;1.00
37530;DHT22;23374;52.758;6.872;2023-07-13T01:03:45;17.10;1.00
37530;DHT22;23374;52.758;6.872;2023-07-13T01:06:07;17.10;1.00
37530;DHT22;23374;52.758;6.872;2023-07-13T01:08:28;17.20;1.00
37530;DHT22;23374;52.758;6.872;2023-07-13T01:10:57;17.20;1.00
37530;DHT22;23374;52.758;6.872;2023-07-13T01:13:18;17.20;1.00
37530;DHT22;23374;52.758;6.872;2023-07-13T01:15:47;17.20;1.00
37530;DHT22;23374;52.758;6.872;2023-07-13T01:18:17;17.20;1.00
37530;DHT22;23374;52.758;6.872;2023-07-13T01:20:39;17.20;1.00
37530;DHT22;23374;52.758;6.872;2023-07-13T01:23:00;17.20;1.00
37530;DHT22;23374;52.758;6.872;2023-07-13T01:25:20;17.20;1.00
37530;DHT22;23374;52.758;6.872;2023-07-13T01:27:41;17.20;1.00
37530;DHT22;23374;52.758;6.872;2023-07-13T01:30:03;17.20;1.00
37530;DHT22;23374;52.758;6.872;2023-07-13T01:32:24;17.20;1.00
37530;DHT22;23374;52.758;6.872;2023-07-13T01:34:45;17.20;1.00
37530;DHT22;23374;52.758;6.872;2023-07-13T01:37:06;17.30;1.00
37530;DHT22;23374;52.758;6.872;2023-07-13T01:39:27;17.30;1.00
37530;DHT22;23374;52.758;6.872;2023-07-13T01:41:47;17.30;1.00
37530;DHT22;23374;52.758;6.872;2023-07-13T01:44:08;17.30;1.00
37530;DHT22;23374;52.758;6.872;2023-07-13T01:46:28;17.30;1.00
37530;DHT22;23374;52.758;6.872;2023-07-13T01:48:49;17.30;1.00
37530;DHT22;23374;52.758;6.872;2023-07-13T01:51:10;17.30;1.00
37530;DHT22;23374;52.758;6.872;2023-07-13T01:54:12;17.30;1.00
37530;DHT22;23374;52.758;6.872;2023-07-13T01:56:33;17.20;1.00
37530;DHT22;23374;52.758;6.872;2023-07-13T01:58:53;17.20;1.00
37530;DHT22;23374;52.758;6.872;2023-07-13T02:01:13;17.20;1.00
37530;DHT22;23374;52.758;6.872;2023-07-13T02:03:34;17.20;1.00
37530;DHT22;23374;52.758;6.872;2023-07-13T02:05:55;17.20;1.00
37530;DHT22;23374;52.758;6.872;2023-07-13T02:08:15;17.20;1.00
37530;DHT22;23374;52.758;6.872;2023-07-13T02:10:37;17.20;1.00
37530;DHT22;23374;52.758;6.872;2023-07-13T02:12:57;17.20;1.00
37530;DHT22;23374;52.758;6.872;2023-07-13T02:15:18;17.30;1.00
37530;DHT22;23374;52.758;6.872;2023-07-13T02:17:38;17.30;1.00
37530;DHT22;23374;52.758;6.872;2023-07-13T02:19:58;17.30;1.00
37530;DHT22;23374;52.758;6.872;2023-07-13T02:22:19;17.30;1.00
37530;DHT22;23374;52.758;6.872;2023-07-13T02:24:40;17.30;1.00
37530;DHT22;23374;52.758;6.872;2023-07-13T02:27:00;17.30;1.00
37530;DHT22;23374;52.758;6.872;2023-07-13T02:29:21;17.30;1.00
37530;DHT22;23374;52.758;6.872;2023-07-13T02:31:41;17.30;1.00
37530;DHT22;23374;52.758;6.872;2023-07-13T02:34:02;17.30;1.00
37530;DHT22;23374;52.758;6.872;2023-07-13T02:36:23;17.20;1.00
37530;DHT22;23374;52.758;6.872;2023-07-13T02:38:43;17.20;1.00
37530;DHT22;23374;52.758;6.872;2023-07-13T02:41:06;17.20;1.00
37530;DHT22;23374;52.758;6.872;2023-07-13T02:43:27;17.20;1.00
37530;DHT22;23374;52.758;6.872;2023-07-13T02:45:47;17.20;1.00
37530;DHT22;23374;52.758;6.872;2023-07-13T02:48:08;17.20;1.00
37530;DHT22;23374;52.758;6.872;2023-07-13T02:50:28;17.20;1.00
37530;DHT22;23374;52.758;6.872;2023-07-13T02:52:49;17.20;1.00
37530;DHT22;23374;52.758;6.872;2023-07-13T02:55:10;17.20;1.00
37530;DHT22;23374;52.758;6.872;2023-07-13T02:57:30;17.10;3.50
37530;DHT22;23374;52.758;6.872;2023-07-13T02:59:53;17.10;8.30
37530;DHT22;23374;52.758;6.872;2023-07-13T03:02:13;17.10;11.00
37530;DHT22;23374;52.758;6.872;2023-07-13T03:04:38;17.10;3.10
37530;DHT22;23374;52.758;6.872;2023-07-13T03:07:01;17.10;9.20
37530;DHT22;23374;52.758;6.872;2023-07-13T03:09:21;17.10;7.90
37530;DHT22;23374;52.758;6.872;2023-07-13T03:11:42;17.10;9.50
37530;DHT22;23374;52.758;6.872;2023-07-13T03:14:02;17.00;8.50
37530;DHT22;23374;52.758;6.872;2023-07-13T03:16:22;17.00;11.70
37530;DHT22;23374;52.758;6.872;2023-07-13T03:18:43;17.00;19.10
37530;DHT22;23374;52.758;6.872;2023-07-13T03:21:04;17.00;23.30
37530;DHT22;23374;52.758;6.872;2023-07-13T03:23:25;16.90;36.90
37530;DHT22;23374;52.758;6.872;2023-07-13T03:25:45;16.90;30.10
37530;DHT22;23374;52.758;6.872;2023-07-13T03:28:06;16.90;34.40
37530;DHT22;23374;52.758;6.872;2023-07-13T03:30:26;17.00;30.40
37530;DHT22;23374;52.758;6.872;2023-07-13T03:32:46;16.90;27.00
37530;DHT22;23374;52.758;6.872;2023-07-13T03:35:09;16.90;33.70
37530;DHT22;23374;52.758;6.872;2023-07-13T03:37:30;16.90;31.70
37530;DHT22;23374;52.758;6.872;2023-07-13T03:39:51;16.90;25.30
37530;DHT22;23374;52.758;6.872;2023-07-13T03:42:11;16.90;28.30
37530;DHT22;23374;52.758;6.872;2023-07-13T03:44:31;16.80;39.40
37530;DHT22;23374;52.758;6.872;2023-07-13T03:46:51;16.80;46.60
37530;DHT22;23374;52.758;6.872;2023-07-13T03:49:12;16.70;48.80
37530;DHT22;23374;52.758;6.872;2023-07-13T03:51:32;16.70;40.90
37530;DHT22;23374;52.758;6.872;2023-07-13T03:53:53;16.70;73.20
37530;DHT22;23374;52.758;6.872;2023-07-13T03:56:14;16.70;47.40
37530;DHT22;23374;52.758;6.872;2023-07-13T03:58:41;16.70;50.80
37530;DHT22;23374;52.758;6.872;2023-07-13T04:01:04;16.70;51.00
37530;DHT22;23374;52.758;6.872;2023-07-13T04:03:25;16.70;49.10
37530;DHT22;23374;52.758;6.872;2023-07-13T04:05:47;16.70;48.60
37530;DHT22;23374;52.758;6.872;2023-07-13T04:08:08;16.70;48.10
37530;DHT22;23374;52.758;6.872;2023-07-13T04:10:29;16.60;68.30
37530;DHT22;23374;52.758;6.872;2023-07-13T04:12:49;16.60;54.60
37530;DHT22;23374;52.758;6.872;2023-07-13T04:15:10;16.50;70.10
37530;DHT22;23374;52.758;6.872;2023-07-13T04:17:30;16.60;65.50
37530;DHT22;23374;52.758;6.872;2023-07-13T04:19:51;16.50;51.20
37530;DHT22;23374;52.758;6.872;2023-07-13T04:22:11;16.60;54.40
37530;DHT22;23374;52.758;6.872;2023-07-13T04:24:32;16.60;47.60
37530;DHT22;23374;52.758;6.872;2023-07-13T04:26:52;16.60;72.20
37530;DHT22;23374;52.758;6.872;2023-07-13T04:29:12;16.60;67.30
37530;DHT22;23374;52.758;6.872;2023-07-13T04:31:33;16.50;84.10
37530;DHT22;23374;52.758;6.872;2023-07-13T04:33:54;16.60;71.60
37530;DHT22;23374;52.758;6.872;2023-07-13T04:36:16;16.70;66.20
37530;DHT22;23374;52.758;6.872;2023-07-13T04:38:36;16.70;91.90
37530;DHT22;23374;52.758;6.872;2023-07-13T04:41:00;16.70;77.20
37530;DHT22;23374;52.758;6.872;2023-07-13T04:43:21;16.70;61.30
37530;DHT22;23374;52.758;6.872;2023-07-13T04:45:41;16.80;53.20
37530;DHT22;23374;52.758;6.872;2023-07-13T04:48:03;16.80;71.70
37530;DHT22;23374;52.758;6.872;2023-07-13T04:50:23;16.70;79.40
37530;DHT22;23374;52.758;6.872;2023-07-13T04:52:44;16.70;58.90
37530;DHT22;23374;52.758;6.872;2023-07-13T04:55:05;16.70;76.20
37530;DHT22;23374;52.758;6.872;2023-07-13T04:57:27;16.80;81.80
37530;DHT22;23374;52.758;6.872;2023-07-13T04:59:47;16.70;74.20
37530;DHT22;23374;52.758;6.872;2023-07-13T05:02:08;16.70;85.30
37530;DHT22;23374;52.758;6.872;2023-07-13T05:04:28;16.70;98.70
37530;DHT22;23374;52.758;6.872;2023-07-13T05:06:48;16.70;87.40
37530;DHT22;23374;52.758;6.872;2023-07-13T05:09:09;16.70;91.80
37530;DHT22;23374;52.758;6.872;2023-07-13T05:11:29;16.70;80.50
37530;DHT22;23374;52.758;6.872;2023-07-13T05:13:50;16.70;82.30
37530;DHT22;23374;52.758;6.872;2023-07-13T05:16:10;16.90;93.60
37530;DHT22;23374;52.758;6.872;2023-07-13T05:18:30;17.20;92.50
37530;DHT22;23374;52.758;6.872;2023-07-13T05:21:04;17.50;75.60
37530;DHT22;23374;52.758;6.872;2023-07-13T05:23:25;17.80;54.90
37530;DHT22;23374;52.758;6.872;2023-07-13T05:25:45;18.10;45.20
37530;DHT22;23374;52.758;6.872;2023-07-13T05:28:06;18.30;33.70
37530;DHT22;23374;52.758;6.872;2023-07-13T05:30:26;18.40;39.50
37530;DHT22;23374;52.758;6.872;2023-07-13T05:32:46;18.60;29.70
37530;DHT22;23374;52.758;6.872;2023-07-13T05:35:07;18.80;31.10
37530;DHT22;23374;52.758;6.872;2023-07-13T05:37:28;19.00;36.70
37530;DHT22;23374;52.758;6.872;2023-07-13T05:39:48;19.10;26.30
37530;DHT22;23374;52.758;6.872;2023-07-13T05:42:09;19.30;17.50
37530;DHT22;23374;52.758;6.872;2023-07-13T05:44:29;19.30;2.30
37530;DHT22;23374;52.758;6.872;2023-07-13T05:46:49;19.40;17.60
37530;DHT22;23374;52.758;6.872;2023-07-13T05:49:10;19.70;7.20
37530;DHT22;23374;52.758;6.872;2023-07-13T05:51:31;19.70;1.80
37530;DHT22;23374;52.758;6.872;2023-07-13T05:53:51;19.70;1.00
37530;DHT22;23374;52.758;6.872;2023-07-13T05:56:12;19.80;4.10
37530;DHT22;23374;52.758;6.872;2023-07-13T05:58:32;19.90;1.00
37530;DHT22;23374;52.758;6.872;2023-07-13T06:01:07;20.10;1.00
37530;DHT22;23374;52.758;6.872;2023-07-13T06:03:27;20.20;1.00
37530;DHT22;23374;52.758;6.872;2023-07-13T06:05:47;20.40;1.00
37530;DHT22;23374;52.758;6.872;2023-07-13T06:08:08;20.50;1.00
37530;DHT22;23374;52.758;6.872;2023-07-13T06:10:31;20.60;1.00
37530;DHT22;23374;52.758;6.872;2023-07-13T06:12:52;20.60;1.00
37530;DHT22;23374;52.758;6.872;2023-07-13T06:15:12;20.50;1.00
37530;DHT22;23374;52.758;6.872;2023-07-13T06:17:32;20.60;1.00
37530;DHT22;23374;52.758;6.872;2023-07-13T06:19:52;20.40;1.00
37530;DHT22;23374;52.758;6.872;2023-07-13T06:22:13;20.30;1.00
37530;DHT22;23374;52.758;6.872;2023-07-13T06:24:33;20.10;1.00
37530;DHT22;23374;52.758;6.872;2023-07-13T06:26:53;20.00;1.00
37530;DHT22;23374;52.758;6.872;2023-07-13T06:29:14;19.80;1.00
37530;DHT22;23374;52.758;6.872;2023-07-13T06:31:34;19.70;13.40
37530;DHT22;23374;52.758;6.872;2023-07-13T06:33:55;19.60;1.00
37530;DHT22;23374;52.758;6.872;2023-07-13T06:36:15;19.40;22.40
37530;DHT22;23374;52.758;6.872;2023-07-13T06:38:36;19.20;12.50
37530;DHT22;23374;52.758;6.872;2023-07-13T06:40:57;19.10;11.60
37530;DHT22;23374;52.758;6.872;2023-07-13T06:43:18;19.00;3.50
37530;DHT22;23374;52.758;6.872;2023-07-13T06:45:44;18.80;19.40
37530;DHT22;23374;52.758;6.872;2023-07-13T06:48:09;18.80;19.70
37530;DHT22;23374;52.758;6.872;2023-07-13T06:50:29;18.80;24.40
37530;DHT22;23374;52.758;6.872;2023-07-13T06:52:51;18.80;26.70
37530;DHT22;23374;52.758;6.872;2023-07-13T06:55:12;18.70;36.30
37530;DHT22;23374;52.758;6.872;2023-07-13T06:57:33;18.70;25.80
37530;DHT22;23374;52.758;6.872;2023-07-13T06:59:53;18.70;40.10
37530;DHT22;23374;52.758;6.872;2023-07-13T07:02:14;18.70;30.30
37530;DHT22;23374;52.758;6.872;2023-07-13T07:04:34;18.70;40.60
37530;DHT22;23374;52.758;6.872;2023-07-13T07:06:55;18.80;39.80
37530;DHT22;23374;52.758;6.872;2023-07-13T07:09:15;18.90;47.70
37530;DHT22;23374;52.758;6.872;2023-07-13T07:11:37;18.90;33.90
37530;DHT22;23374;52.758;6.872;2023-07-13T07:13:57;19.00;33.70
37530;DHT22;23374;52.758;6.872;2023-07-13T07:16:17;19.20;30.30
37530;DHT22;23374;52.758;6.872;2023-07-13T07:18:38;19.20;25.80
37530;DHT22;23374;52.758;6.872;2023-07-13T07:20:58;19.40;23.00
37530;DHT22;23374;52.758;6.872;2023-07-13T07:23:19;19.40;24.00
37530;DHT22;23374;52.758;6.872;2023-07-13T07:25:39;19.40;34.80
37530;DHT22;23374;52.758;6.872;2023-07-13T07:28:02;19.40;23.40
37530;DHT22;23374;52.758;6.872;2023-07-13T07:30:23;19.40;9.00
37530;DHT22;23374;52.758;6.872;2023-07-13T07:32:44;19.40;13.50
37530;DHT22;23374;52.758;6.872;2023-07-13T07:35:07;19.40;15.80
37530;DHT22;23374;52.758;6.872;2023-07-13T07:37:27;19.30;15.20
37530;DHT22;23374;52.758;6.872;2023-07-13T07:39:47;19.30;28.60
37530;DHT22;23374;52.758;6.872;2023-07-13T07:42:08;19.30;27.30
37530;DHT22;23374;52.758;6.872;2023-07-13T07:44:30;19.30;34.60
37530;DHT22;23374;52.758;6.872;2023-07-13T07:46:50;19.30;14.90
37530;DHT22;23374;52.758;6.872;2023-07-13T07:49:11;19.30;25.90
37530;DHT22;23374;52.758;6.872;2023-07-13T07:51:31;19.30;20.70
37530;DHT22;23374;52.758;6.872;2023-07-13T07:53:52;19.30;21.60
37530;DHT22;23374;52.758;6.872;2023-07-13T07:56:12;19.30;20.00
37530;DHT22;23374;52.758;6.872;2023-07-13T07:58:33;19.30;22.00
37530;DHT22;23374;52.758;6.872;2023-07-13T08:00:53;19.30;17.10
37530;DHT22;23374;52.758;6.872;2023-07-13T08:03:14;19.30;22.40
37530;DHT22;23374;52.758;6.872;2023-07-13T08:05:36;19.20;18.70
37530;DHT22;23374;52.758;6.872;2023-07-13T08:07:56;19.20;21.20
37530;DHT22;23374;52.758;6.872;2023-07-13T08:10:17;19.20;27.90
37530;DHT22;23374;52.758;6.872;2023-07-13T08:12:39;19.20;32.70
37530;DHT22;23374;52.758;6.872;2023-07-13T08:15:00;19.20;32.70
37530;DHT22;23374;52.758;6.872;2023-07-13T08:17:21;19.30;25.40
37530;DHT22;23374;52.758;6.872;2023-07-13T08:19:41;19.50;25.10
37530;DHT22;23374;52.758;6.872;2023-07-13T08:22:02;19.60;17.10
37530;DHT22;23374;52.758;6.872;2023-07-13T08:24:24;19.60;18.70
37530;DHT22;23374;52.758;6.872;2023-07-13T08:26:45;19.70;18.30
37530;DHT22;23374;52.758;6.872;2023-07-13T08:29:06;19.80;6.40
37530;DHT22;23374;52.758;6.872;2023-07-13T08:31:27;19.90;6.80
37530;DHT22;23374;52.758;6.872;2023-07-13T08:33:47;19.90;6.50
37530;DHT22;23374;52.758;6.872;2023-07-13T08:36:08;20.10;1.00
37530;DHT22;23374;52.758;6.872;2023-07-13T08:38:28;20.10;1.00
37530;DHT22;23374;52.758;6.872;2023-07-13T08:40:54;20.10;1.00
37530;DHT22;23374;52.758;6.872;2023-07-13T08:43:19;20.20;1.00
37530;DHT22;23374;52.758;6.872;2023-07-13T08:45:49;20.20;1.00
37530;DHT22;23374;52.758;6.872;2023-07-13T08:48:21;20.30;17.00
37530;DHT22;23374;52.758;6.872;2023-07-13T08:50:58;20.40;1.00
37530;DHT22;23374;52.758;6.872;2023-07-13T08:53:21;20.40;1.00
37530;DHT22;23374;52.758;6.872;2023-07-13T08:55:43;20.60;1.00
37530;DHT22;23374;52.758;6.872;2023-07-13T08:58:16;20.60;1.00
37530;DHT22;23374;52.758;6.872;2023-07-13T09:05:49;21.00;1.00
37530;DHT22;23374;52.758;6.872;2023-07-13T09:08:55;21.30;1.00
37530;DHT22;23374;52.758;6.872;2023-07-13T09:17:41;20.80;1.00
37530;DHT22;23374;52.758;6.872;2023-07-13T09:21:03;20.50;1.00
37530;DHT22;23374;52.758;6.872;2023-07-13T09:23:28;20.20;1.00
37530;DHT22;23374;52.758;6.872;2023-07-13T09:26:00;19.90;1.00
37530;DHT22;23374;52.758;6.872;2023-07-13T09:28:28;19.60;28.30
37530;DHT22;23374;52.758;6.872;2023-07-13T09:31:57;19.20;37.40
37530;DHT22;23374;52.758;6.872;2023-07-13T09:34:20;18.70;28.70
37530;DHT22;23374;52.758;6.872;2023-07-13T09:36:41;18.40;46.00
37530;DHT22;23374;52.758;6.872;2023-07-13T09:39:40;18.00;78.70
37530;DHT22;23374;52.758;6.872;2023-07-13T09:42:35;17.40;99.90
37530;DHT22;23374;52.758;6.872;2023-07-13T09:45:00;16.80;99.90
37530;DHT22;23374;52.758;6.872;2023-07-13T09:47:33;16.30;99.90
37530;DHT22;23374;52.758;6.872;2023-07-13T09:50:09;15.90;99.90
37530;DHT22;23374;52.758;6.872;2023-07-13T09:52:43;15.60;99.90
37530;DHT22;23374;52.758;6.872;2023-07-13T09:55:27;15.50;99.90
37530;DHT22;23374;52.758;6.872;2023-07-13T09:57:49;15.50;99.90
37530;DHT22;23374;52.758;6.872;2023-07-13T10:00:29;15.50;99.90
37530;DHT22;23374;52.758;6.872;2023-07-13T10:03:27;15.60;99.90
37530;DHT22;23374;52.758;6.872;2023-07-13T10:05:50;15.70;99.90
37530;DHT22;23374;52.758;6.872;2023-07-13T10:08:29;15.80;99.90
37530;DHT22;23374;52.758;6.872;2023-07-13T10:11:41;15.90;99.90
37530;DHT22;23374;52.758;6.872;2023-07-13T10:14:14;16.10;99.90
37530;DHT22;23374;52.758;6.872;2023-07-13T10:16:36;16.30;99.90
37530;DHT22;23374;52.758;6.872;2023-07-13T10:18:59;16.40;99.90
37530;DHT22;23374;52.758;6.872;2023-07-13T10:21:26;16.60;99.90
37530;DHT22;23374;52.758;6.872;2023-07-13T10:24:12;16.70;99.90
37530;DHT22;23374;52.758;6.872;2023-07-13T10:26:34;16.90;99.90
37530;DHT22;23374;52.758;6.872;2023-07-13T10:29:00;16.90;99.90
37530;DHT22;23374;52.758;6.872;2023-07-13T10:31:22;17.00;99.90
37530;DHT22;23374;52.758;6.872;2023-07-13T10:33:43;17.20;99.90
37530;DHT22;23374;52.758;6.872;2023-07-13T10:36:40;17.30;99.90
37530;DHT22;23374;52.758;6.872;2023-07-13T10:39:04;17.50;99.90
37530;DHT22;23374;52.758;6.872;2023-07-13T10:41:26;17.60;99.90
37530;DHT22;23374;52.758;6.872;2023-07-13T10:43:52;17.60;99.90
37530;DHT22;23374;52.758;6.872;2023-07-13T10:46:16;17.60;99.90
37530;DHT22;23374;52.758;6.872;2023-07-13T10:48:40;17.80;99.90
37530;DHT22;23374;52.758;6.872;2023-07-13T10:51:05;18.00;99.90
37530;DHT22;23374;52.758;6.872;2023-07-13T10:53:33;18.20;99.90
37530;DHT22;23374;52.758;6.872;2023-07-13T10:56:06;18.40;99.90
37530;DHT22;23374;52.758;6.872;2023-07-13T10:58:39;18.60;99.90
37530;DHT22;23374;52.758;6.872;2023-07-13T11:04:19;18.80;99.90
37530;DHT22;23374;52.758;6.872;2023-07-13T11:06:42;19.00;99.90
37530;DHT22;23374;52.758;6.872;2023-07-13T11:17:57;19.10;99.90
37530;DHT22;23374;52.758;6.872;2023-07-13T11:20:32;19.20;99.90
37530;DHT22;23374;52.758;6.872;2023-07-13T11:23:17;19.20;99.90
37530;DHT22;23374;52.758;6.872;2023-07-13T11:25:38;19.30;99.90
37530;DHT22;23374;52.758;6.872;2023-07-13T11:29:51;19.30;99.90
37530;DHT22;23374;52.758;6.872;2023-07-13T11:32:31;19.10;67.40
37530;DHT22;23374;52.758;6.872;2023-07-13T11:34:53;18.70;37.90
37530;DHT22;23374;52.758;6.872;2023-07-13T11:37:19;18.20;58.10
37530;DHT22;23374;52.758;6.872;2023-07-13T11:39:43;17.90;63.50
37530;DHT22;23374;52.758;6.872;2023-07-13T11:42:11;17.60;92.90
37530;DHT22;23374;52.758;6.872;2023-07-13T11:44:34;17.50;99.90
37530;DHT22;23374;52.758;6.872;2023-07-13T11:47:10;17.40;99.90
37530;DHT22;23374;52.758;6.872;2023-07-13T11:49:32;17.50;99.90
37530;DHT22;23374;52.758;6.872;2023-07-13T11:52:00;17.60;99.90
37530;DHT22;23374;52.758;6.872;2023-07-13T11:54:43;17.80;99.90
37530;DHT22;23374;52.758;6.872;2023-07-13T11:57:47;18.00;99.90
37530;DHT22;23374;52.758;6.872;2023-07-13T12:00:17;18.30;99.90
37530;DHT22;23374;52.758;6.872;2023-07-13T12:02:44;18.40;99.90
37530;DHT22;23374;52.758;6.872;2023-07-13T12:05:06;18.60;99.90
37530;DHT22;23374;52.758;6.872;2023-07-13T12:07:30;18.80;99.90
37530;DHT22;23374;52.758;6.872;2023-07-13T12:09:51;19.00;99.90
37530;DHT22;23374;52.758;6.872;2023-07-13T12:12:21;19.30;99.90
37530;DHT22;23374;52.758;6.872;2023-07-13T12:14:42;19.60;99.90
37530;DHT22;23374;52.758;6.872;2023-07-13T12:17:11;19.90;95.70
37530;DHT22;23374;52.758;6.872;2023-07-13T12:19:32;20.10;56.80
37530;DHT22;23374;52.758;6.872;2023-07-13T12:21:57;20.30;69.40
37530;DHT22;23374;52.758;6.872;2023-07-13T12:24:20;20.40;39.20
37530;DHT22;23374;52.758;6.872;2023-07-13T12:26:42;20.50;48.40
37530;DHT22;23374;52.758;6.872;2023-07-13T12:29:06;20.60;37.40
37530;DHT22;23374;52.758;6.872;2023-07-13T12:31:48;20.80;52.60
37530;DHT22;23374;52.758;6.872;2023-07-13T12:34:21;21.00;15.40
37530;DHT22;23374;52.758;6.872;2023-07-13T12:37:00;21.10;50.40
37530;DHT22;23374;52.758;6.872;2023-07-13T12:39:35;21.20;30.50
37530;DHT22;23374;52.758;6.872;2023-07-13T12:42:30;21.10;33.10
37530;DHT22;23374;52.758;6.872;2023-07-13T12:45:21;21.10;22.40
37530;DHT22;23374;52.758;6.872;2023-07-13T12:47:47;21.00;46.00
37530;DHT22;23374;52.758;6.872;2023-07-13T12:50:21;20.90;40.40
37530;DHT22;23374;52.758;6.872;2023-07-13T12:52:44;20.90;46.50
37530;DHT22;23374;52.758;6.872;2023-07-13T12:55:11;20.80;8.90
37530;DHT22;23374;52.758;6.872;2023-07-13T12:57:40;20.70;20.00
37530;DHT22;23374;52.758;6.872;2023-07-13T13:00:03;20.60;1.00
37530;DHT22;23374;52.758;6.872;2023-07-13T13:02:33;20.60;60.90
37530;DHT22;23374;52.758;6.872;2023-07-13T13:04:57;20.50;40.80
37530;DHT22;23374;52.758;6.872;2023-07-13T13:07:18;20.40;48.90
37530;DHT22;23374;52.758;6.872;2023-07-13T13:09:40;20.40;74.40
37530;DHT22;23374;52.758;6.872;2023-07-13T13:12:01;20.30;52.80
37530;DHT22;23374;52.758;6.872;2023-07-13T13:14:21;20.30;31.60
37530;DHT22;23374;52.758;6.872;2023-07-13T13:16:51;20.20;18.30
37530;DHT22;23374;52.758;6.872;2023-07-13T13:19:17;20.30;17.40
37530;DHT22;23374;52.758;6.872;2023-07-13T13:21:39;20.50;32.00
37530;DHT22;23374;52.758;6.872;2023-07-13T13:23:59;20.60;14.70
37530;DHT22;23374;52.758;6.872;2023-07-13T13:26:22;20.90;25.10
37530;DHT22;23374;52.758;6.872;2023-07-13T13:28:44;21.20;1.00
37530;DHT22;23374;52.758;6.872;2023-07-13T13:31:04;21.40;1.00
37530;DHT22;23374;52.758;6.872;2023-07-13T13:33:25;21.60;1.00
37530;DHT22;23374;52.758;6.872;2023-07-13T13:35:45;21.70;1.00
37530;DHT22;23374;52.758;6.872;2023-07-13T13:38:22;21.80;1.00
37530;DHT22;23374;52.758;6.872;2023-07-13T13:40:45;21.90;1.00
37530;DHT22;23374;52.758;6.872;2023-07-13T13:43:24;22.00;1.00
37530;DHT22;23374;52.758;6.872;2023-07-13T13:45:48;22.00;1.00
37530;DHT22;23374;52.758;6.872;2023-07-13T13:48:18;22.10;1.00
37530;DHT22;23374;52.758;6.872;2023-07-13T13:50:39;22.20;1.00
37530;DHT22;23374;52.758;6.872;2023-07-13T13:53:00;22.20;1.00
37530;DHT22;23374;52.758;6.872;2023-07-13T13:55:22;22.30;1.00
37530;DHT22;23374;52.758;6.872;2023-07-13T13:57:45;22.40;1.00
37530;DHT22;23374;52.758;6.872;2023-07-13T14:00:09;22.50;1.00
37530;DHT22;23374;52.758;6.872;2023-07-13T14:02:32;22.50;1.00
37530;DHT22;23374;52.758;6.872;2023-07-13T14:04:58;22.60;1.00
37530;DHT22;23374;52.758;6.872;2023-07-13T14:07:19;22.60;1.00
37530;DHT22;23374;52.758;6.872;2023-07-13T14:09:39;22.60;1.00
37530;DHT22;23374;52.758;6.872;2023-07-13T14:12:10;22.60;1.00
37530;DHT22;23374;52.758;6.872;2023-07-13T14:14:33;22.50;1.00
37530;DHT22;23374;52.758;6.872;2023-07-13T14:16:55;22.50;1.00
37530;DHT22;23374;52.758;6.872;2023-07-13T14:19:16;22.50;1.00
37530;DHT22;23374;52.758;6.872;2023-07-13T14:21:37;22.60;1.00
37530;DHT22;23374;52.758;6.872;2023-07-13T14:23:57;22.60;1.00
37530;DHT22;23374;52.758;6.872;2023-07-13T14:26:24;22.60;1.00
37530;DHT22;23374;52.758;6.872;2023-07-13T14:28:48;22.70;1.00
37530;DHT22;23374;52.758;6.872;2023-07-13T14:31:11;22.70;99.90
37530;DHT22;23374;52.758;6.872;2023-07-13T14:33:32;22.70;99.90
37530;DHT22;23374;52.758;6.872;2023-07-13T14:35:52;22.70;1.00
37530;DHT22;23374;52.758;6.872;2023-07-13T14:38:17;22.70;1.00
37530;DHT22;23374;52.758;6.872;2023-07-13T14:40:39;22.70;1.00
37530;DHT22;23374;52.758;6.872;2023-07-13T14:43:00;22.70;99.90
37530;DHT22;23374;52.758;6.872;2023-07-13T14:45:21;22.70;1.00
37530;DHT22;23374;52.758;6.872;2023-07-13T14:47:42;22.80;99.90
37530;DHT22;23374;52.758;6.872;2023-07-13T14:50:04;22.80;1.00
37530;DHT22;23374;52.758;6.872;2023-07-13T14:52:25;22.90;1.00
37530;DHT22;23374;52.758;6.872;2023-07-13T14:54:46;23.00;1.00
37530;DHT22;23374;52.758;6.872;2023-07-13T14:57:19;23.00;1.00
37530;DHT22;23374;52.758;6.872;2023-07-13T14:59:39;23.00;99.90
37530;DHT22;23374;52.758;6.872;2023-07-13T15:02:00;23.00;99.90
37530;DHT22;23374;52.758;6.872;2023-07-13T15:04:21;23.00;1.00
37530;DHT22;23374;52.758;6.872;2023-07-13T15:07:02;23.00;99.90
37530;DHT22;23374;52.758;6.872;2023-07-13T15:09:23;22.90;99.90
37530;DHT22;23374;52.758;6.872;2023-07-13T15:11:46;22.80;99.90
37530;DHT22;23374;52.758;6.872;2023-07-13T15:14:06;22.70;99.90
37530;DHT22;23374;52.758;6.872;2023-07-13T15:16:26;22.80;1.00
37530;DHT22;23374;52.758;6.872;2023-07-13T15:18:46;22.80;99.90
37530;DHT22;23374;52.758;6.872;2023-07-13T15:21:11;22.80;99.90
37530;DHT22;23374;52.758;6.872;2023-07-13T15:23:34;22.80;99.90
37530;DHT22;23374;52.758;6.872;2023-07-13T15:25:55;22.80;99.90
37530;DHT22;23374;52.758;6.872;2023-07-13T15:28:15;22.90;99.90
37530;DHT22;23374;52.758;6.872;2023-07-13T15:30:45;23.00;1.00
37530;DHT22;23374;52.758;6.872;2023-07-13T15:33:31;23.10;99.90
37530;DHT22;23374;52.758;6.872;2023-07-13T15:35:55;23.20;99.90
37530;DHT22;23374;52.758;6.872;2023-07-13T15:38:23;23.20;99.90
37530;DHT22;23374;52.758;6.872;2023-07-13T15:40:44;23.20;99.90
37530;DHT22;23374;52.758;6.872;2023-07-13T15:43:13;23.20;99.90
37530;DHT22;23374;52.758;6.872;2023-07-13T15:45:34;23.20;99.90